sensor_id;sensor_type;location;lat;lon;timestamp;temperature;humidity
48043;DHT22;33988;47.992;8.820;2024-01-10T00:01:25;3.60;49.10
48043;DHT22;33988;47.992;8.820;2024-01-10T00:03:54;3.50;49.00
48043;DHT22;33988;47.992;8.820;2024-01-10T00:06:21;3.50;49.10
48043;DHT22;33988;47.992;8.820;2024-01-10T00:08:50;3.50;49.10
48043;DHT22;33988;47.992;8.820;2024-01-10T00:11:17;3.60;49.20
48043;DHT22;33988;47.992;8.820;2024-01-10T00:13:44;3.50;49.10
48043;DHT22;33988;47.992;8.820;2024-01-10T00:16:14;3.60;49.20
48043;DHT22;33988;47.992;8.820;2024-01-10T00:18:41;3.60;49.20
48043;DHT22;33988;47.992;8.820;2024-01-10T00:21:10;3.60;49.20
48043;DHT22;33988;47.992;8.820;2024-01-10T00:23:38;3.60;49.20
48043;DHT22;33988;47.992;8.820;2024-01-10T00:26:04;3.60;49.20
48043;DHT22;33988;47.992;8.820;2024-01-10T00:28:31;3.60;49.20
48043;DHT22;33988;47.992;8.820;2024-01-10T00:30:58;3.60;49.20
48043;DHT22;33988;47.992;8.820;2024-01-10T00:33:25;3.60;49.20
48043;DHT22;33988;47.992;8.820;2024-01-10T00:35:52;3.60;49.20
48043;DHT22;33988;47.992;8.820;2024-01-10T00:38:19;3.60;49.20
48043;DHT22;33988;47.992;8.820;2024-01-10T00:40:46;3.60;49.20
48043;DHT22;33988;47.992;8.820;2024-01-10T00:43:13;3.60;49.30
48043;DHT22;33988;47.992;8.820;2024-01-10T00:45:40;3.60;49.30
48043;DHT22;33988;47.992;8.820;2024-01-10T00:48:08;3.60;49.30
48043;DHT22;33988;47.992;8.820;2024-01-10T00:50:35;3.60;49.30
48043;DHT22;33988;47.992;8.820;2024-01-10T00:53:02;3.60;49.30
48043;DHT22;33988;47.992;8.820;2024-01-10T00:55:29;3.60;49.30
48043;DHT22;33988;47.992;8.820;2024-01-10T00:57:58;3.60;49.30
48043;DHT22;33988;47.992;8.820;2024-01-10T01:00:25;3.60;49.30
48043;DHT22;33988;47.992;8.820;2024-01-10T01:02:53;3.60;49.30
48043;DHT22;33988;47.992;8.820;2024-01-10T01:05:22;3.60;49.30
48043;DHT22;33988;47.992;8.820;2024-01-10T01:07:51;3.60;49.40
48043;DHT22;33988;47.992;8.820;2024-01-10T01:10:23;3.50;49.30
48043;DHT22;33988;47.992;8.820;2024-01-10T01:12:50;3.50;49.30
48043;DHT22;33988;47.992;8.820;2024-01-10T01:15:17;3.50;49.40
48043;DHT22;33988;47.992;8.820;2024-01-10T01:17:44;3.60;49.50
48043;DHT22;33988;47.992;8.820;2024-01-10T01:20:10;3.50;49.40
48043;DHT22;33988;47.992;8.820;2024-01-10T01:22:37;3.60;49.50
48043;DHT22;33988;47.992;8.820;2024-01-10T01:25:04;3.60;49.50
48043;DHT22;33988;47.992;8.820;2024-01-10T01:27:31;3.50;49.50
48043;DHT22;33988;47.992;8.820;2024-01-10T01:29:58;3.60;49.50
48043;DHT22;33988;47.992;8.820;2024-01-10T01:32:27;3.60;49.50
48043;DHT22;33988;47.992;8.820;2024-01-10T01:34:55;3.60;49.60
48043;DHT22;33988;47.992;8.820;2024-01-10T01:37:24;3.60;49.50
48043;DHT22;33988;47.992;8.820;2024-01-10T01:39:51;3.60;49.50
48043;DHT22;33988;47.992;8.820;2024-01-10T01:42:17;3.60;49.60
48043;DHT22;33988;47.992;8.820;2024-01-10T01:44:49;3.60;49.60
48043;DHT22;33988;47.992;8.820;2024-01-10T01:47:16;3.60;49.80
48043;DHT22;33988;47.992;8.820;2024-01-10T01:49:43;3.60;49.60
48043;DHT22;33988;47.992;8.820;2024-01-10T01:52:11;3.60;49.60
48043;DHT22;33988;47.992;8.820;2024-01-10T01:54:38;3.60;49.60
48043;DHT22;33988;47.992;8.820;2024-01-10T01:57:06;3.60;49.60
48043;DHT22;33988;47.992;8.820;2024-01-10T01:59:35;3.60;49.60
48043;DHT22;33988;47.992;8.820;2024-01-10T02:02:02;3.60;49.60
48043;DHT22;33988;47.992;8.820;2024-01-10T02:04:31;3.60;49.60
48043;DHT22;33988;47.992;8.820;2024-01-10T02:06:58;3.60;49.60
48043;DHT22;33988;47.992;8.820;2024-01-10T02:09:27;3.60;49.60
48043;DHT22;33988;47.992;8.820;2024-01-10T02:12:01;3.70;49.70
48043;DHT22;33988;47.992;8.820;2024-01-10T02:14:32;3.70;49.70
48043;DHT22;33988;47.992;8.820;2024-01-10T02:17:02;3.70;49.70
48043;DHT22;33988;47.992;8.820;2024-01-10T02:19:29;3.70;49.70
48043;DHT22;33988;47.992;8.820;2024-01-10T02:21:57;3.70;49.70
48043;DHT22;33988;47.992;8.820;2024-01-10T02:24:25;3.70;49.70
48043;DHT22;33988;47.992;8.820;2024-01-10T02:26:52;3.70;49.70
48043;DHT22;33988;47.992;8.820;2024-01-10T02:29:22;3.70;49.70
48043;DHT22;33988;47.992;8.820;2024-01-10T02:31:50;3.70;49.70
48043;DHT22;33988;47.992;8.820;2024-01-10T02:34:17;3.70;49.70
48043;DHT22;33988;47.992;8.820;2024-01-10T02:36:47;3.70;49.70
48043;DHT22;33988;47.992;8.820;2024-01-10T02:39:14;3.70;49.70
48043;DHT22;33988;47.992;8.820;2024-01-10T02:41:41;3.70;49.70
48043;DHT22;33988;47.992;8.820;2024-01-10T02:44:10;3.70;49.70
48043;DHT22;33988;47.992;8.820;2024-01-10T02:46:37;3.70;49.70
48043;DHT22;33988;47.992;8.820;2024-01-10T02:49:04;3.70;49.70
48043;DHT22;33988;47.992;8.820;2024-01-10T02:51:31;3.70;49.70
48043;DHT22;33988;47.992;8.820;2024-01-10T02:53:58;3.70;49.70
48043;DHT22;33988;47.992;8.820;2024-01-10T02:56:24;3.80;49.80
48043;DHT22;33988;47.992;8.820;2024-01-10T02:58:54;3.80;49.80
48043;DHT22;33988;47.992;8.820;2024-01-10T03:01:21;3.80;49.80
48043;DHT22;33988;47.992;8.820;2024-01-10T03:03:48;3.80;49.90
48043;DHT22;33988;47.992;8.820;2024-01-10T03:06:17;3.80;49.80
48043;DHT22;33988;47.992;8.820;2024-01-10T03:08:44;3.80;49.90
48043;DHT22;33988;47.992;8.820;2024-01-10T03:11:13;3.80;49.80
48043;DHT22;33988;47.992;8.820;2024-01-10T03:13:40;3.70;49.70
48043;DHT22;33988;47.992;8.820;2024-01-10T03:16:07;3.70;49.80
48043;DHT22;33988;47.992;8.820;2024-01-10T03:18:34;3.80;49.90
48043;DHT22;33988;47.992;8.820;2024-01-10T03:21:03;3.70;49.80
48043;DHT22;33988;47.992;8.820;2024-01-10T03:23:33;3.80;49.90
48043;DHT22;33988;47.992;8.820;2024-01-10T03:25:59;3.70;49.80
48043;DHT22;33988;47.992;8.820;2024-01-10T03:28:26;3.70;49.90
48043;DHT22;33988;47.992;8.820;2024-01-10T03:30:56;3.70;49.90
48043;DHT22;33988;47.992;8.820;2024-01-10T03:33:25;3.70;49.90
48043;DHT22;33988;47.992;8.820;2024-01-10T03:35:52;3.70;50.00
48043;DHT22;33988;47.992;8.820;2024-01-10T03:38:19;3.80;50.00
48043;DHT22;33988;47.992;8.820;2024-01-10T03:40:46;3.80;50.00
48043;DHT22;33988;47.992;8.820;2024-01-10T03:43:15;3.80;50.00
48043;DHT22;33988;47.992;8.820;2024-01-10T03:45:45;3.80;50.00
48043;DHT22;33988;47.992;8.820;2024-01-10T03:48:12;3.80;50.00
48043;DHT22;33988;47.992;8.820;2024-01-10T03:50:41;3.80;50.00
48043;DHT22;33988;47.992;8.820;2024-01-10T03:53:08;3.80;50.00
48043;DHT22;33988;47.992;8.820;2024-01-10T03:55:35;3.80;50.00
48043;DHT22;33988;47.992;8.820;2024-01-10T03:58:02;3.80;50.00
48043;DHT22;33988;47.992;8.820;2024-01-10T04:00:29;3.80;50.00
48043;DHT22;33988;47.992;8.820;2024-01-10T04:03:01;3.80;50.00
48043;DHT22;33988;47.992;8.820;2024-01-10T04:05:29;3.80;50.00
48043;DHT22;33988;47.992;8.820;2024-01-10T04:07:56;3.80;50.10
48043;DHT22;33988;47.992;8.820;2024-01-10T04:10:23;3.80;50.10
48043;DHT22;33988;47.992;8.820;2024-01-10T04:12:50;3.80;50.10
48043;DHT22;33988;47.992;8.820;2024-01-10T04:15:17;3.80;50.10
48043;DHT22;33988;47.992;8.820;2024-01-10T04:17:44;3.80;50.10
48043;DHT22;33988;47.992;8.820;2024-01-10T04:20:14;3.80;50.10
48043;DHT22;33988;47.992;8.820;2024-01-10T04:22:44;3.80;50.10
48043;DHT22;33988;47.992;8.820;2024-01-10T04:25:11;3.80;50.10
48043;DHT22;33988;47.992;8.820;2024-01-10T04:27:38;3.80;50.10
48043;DHT22;33988;47.992;8.820;2024-01-10T04:30:05;3.80;50.10
48043;DHT22;33988;47.992;8.820;2024-01-10T04:32:33;3.80;50.10
48043;DHT22;33988;47.992;8.820;2024-01-10T04:35:00;3.80;50.10
48043;DHT22;33988;47.992;8.820;2024-01-10T04:37:27;3.90;50.20
48043;DHT22;33988;47.992;8.820;2024-01-10T04:39:54;3.80;50.10
48043;DHT22;33988;47.992;8.820;2024-01-10T04:42:25;3.90;50.20
48043;DHT22;33988;47.992;8.820;2024-01-10T04:44:52;3.90;50.20
48043;DHT22;33988;47.992;8.820;2024-01-10T04:47:22;3.90;50.10
48043;DHT22;33988;47.992;8.820;2024-01-10T04:49:49;3.90;50.10
48043;DHT22;33988;47.992;8.820;2024-01-10T04:52:19;3.90;50.10
48043;DHT22;33988;47.992;8.820;2024-01-10T04:54:45;3.90;50.10
48043;DHT22;33988;47.992;8.820;2024-01-10T04:57:16;3.90;50.80
48043;DHT22;33988;47.992;8.820;2024-01-10T04:59:43;3.90;50.10
48043;DHT22;33988;47.992;8.820;2024-01-10T05:02:10;3.90;50.10
48043;DHT22;33988;47.992;8.820;2024-01-10T05:04:37;3.90;50.10
48043;DHT22;33988;47.992;8.820;2024-01-10T05:07:04;3.90;50.20
48043;DHT22;33988;47.992;8.820;2024-01-10T05:09:31;3.90;50.20
48043;DHT22;33988;47.992;8.820;2024-01-10T05:12:00;3.90;50.20
48043;DHT22;33988;47.992;8.820;2024-01-10T05:14:29;3.90;50.20
48043;DHT22;33988;47.992;8.820;2024-01-10T05:16:56;4.00;50.30
48043;DHT22;33988;47.992;8.820;2024-01-10T05:19:23;3.90;50.20
48043;DHT22;33988;47.992;8.820;2024-01-10T05:21:50;4.00;50.30
48043;DHT22;33988;47.992;8.820;2024-01-10T05:24:16;4.00;50.30
48043;DHT22;33988;47.992;8.820;2024-01-10T05:26:45;4.00;50.30
48043;DHT22;33988;47.992;8.820;2024-01-10T05:29:11;4.00;50.20
48043;DHT22;33988;47.992;8.820;2024-01-10T05:31:38;4.00;50.20
48043;DHT22;33988;47.992;8.820;2024-01-10T05:34:05;4.00;50.20
48043;DHT22;33988;47.992;8.820;2024-01-10T05:36:32;4.00;50.20
48043;DHT22;33988;47.992;8.820;2024-01-10T05:39:00;4.10;50.30
48043;DHT22;33988;47.992;8.820;2024-01-10T05:41:27;4.10;50.30
48043;DHT22;33988;47.992;8.820;2024-01-10T05:43:54;4.10;50.30
48043;DHT22;33988;47.992;8.820;2024-01-10T05:46:21;4.10;50.30
48043;DHT22;33988;47.992;8.820;2024-01-10T05:48:48;4.10;50.30
48043;DHT22;33988;47.992;8.820;2024-01-10T05:51:15;4.10;50.30
48043;DHT22;33988;47.992;8.820;2024-01-10T05:53:42;4.10;50.30
48043;DHT22;33988;47.992;8.820;2024-01-10T05:56:09;4.10;50.30
48043;DHT22;33988;47.992;8.820;2024-01-10T05:58:36;4.10;50.30
48043;DHT22;33988;47.992;8.820;2024-01-10T06:01:03;4.10;50.30
48043;DHT22;33988;47.992;8.820;2024-01-10T06:03:37;4.10;50.30
48043;DHT22;33988;47.992;8.820;2024-01-10T06:06:11;4.10;50.30
48043;DHT22;33988;47.992;8.820;2024-01-10T06:08:38;4.20;50.40
48043;DHT22;33988;47.992;8.820;2024-01-10T06:11:05;4.20;50.30
48043;DHT22;33988;47.992;8.820;2024-01-10T06:13:36;4.20;50.40
48043;DHT22;33988;47.992;8.820;2024-01-10T06:16:19;4.20;50.30
48043;DHT22;33988;47.992;8.820;2024-01-10T06:18:46;4.20;50.40
48043;DHT22;33988;47.992;8.820;2024-01-10T06:21:15;4.20;50.40
48043;DHT22;33988;47.992;8.820;2024-01-10T06:23:45;4.20;50.50
48043;DHT22;33988;47.992;8.820;2024-01-10T06:26:11;4.20;50.50
48043;DHT22;33988;47.992;8.820;2024-01-10T06:28:38;4.30;50.60
48043;DHT22;33988;47.992;8.820;2024-01-10T06:31:08;4.30;50.60
48043;DHT22;33988;47.992;8.820;2024-01-10T06:33:38;4.30;50.60
48043;DHT22;33988;47.992;8.820;2024-01-10T06:36:05;4.40;50.60
48043;DHT22;33988;47.992;8.820;2024-01-10T06:38:32;4.40;50.60
48043;DHT22;33988;47.992;8.820;2024-01-10T06:41:06;4.40;50.60
48043;DHT22;33988;47.992;8.820;2024-01-10T06:43:37;4.40;50.60
48043;DHT22;33988;47.992;8.820;2024-01-10T06:46:04;4.50;50.60
48043;DHT22;33988;47.992;8.820;2024-01-10T06:48:31;4.50;50.60
48043;DHT22;33988;47.992;8.820;2024-01-10T06:51:00;4.50;50.50
48043;DHT22;33988;47.992;8.820;2024-01-10T06:53:29;4.50;50.50
48043;DHT22;33988;47.992;8.820;2024-01-10T06:55:58;4.50;50.50
48043;DHT22;33988;47.992;8.820;2024-01-10T06:58:25;4.50;50.50
48043;DHT22;33988;47.992;8.820;2024-01-10T07:00:52;4.50;50.50
48043;DHT22;33988;47.992;8.820;2024-01-10T07:03:19;4.50;50.50
48043;DHT22;33988;47.992;8.820;2024-01-10T07:05:46;4.50;50.50
48043;DHT22;33988;47.992;8.820;2024-01-10T07:08:14;4.50;50.50
48043;DHT22;33988;47.992;8.820;2024-01-10T07:10:41;4.50;50.50
48043;DHT22;33988;47.992;8.820;2024-01-10T07:13:08;4.50;50.40
48043;DHT22;33988;47.992;8.820;2024-01-10T07:15:34;4.60;50.50
48043;DHT22;33988;47.992;8.820;2024-01-10T07:18:01;4.60;50.50
48043;DHT22;33988;47.992;8.820;2024-01-10T07:20:29;4.60;50.50
48043;DHT22;33988;47.992;8.820;2024-01-10T07:22:56;4.60;50.50
48043;DHT22;33988;47.992;8.820;2024-01-10T07:25:22;4.60;50.50
48043;DHT22;33988;47.992;8.820;2024-01-10T07:27:52;4.60;50.50
48043;DHT22;33988;47.992;8.820;2024-01-10T07:30:18;4.60;50.50
48043;DHT22;33988;47.992;8.820;2024-01-10T07:32:46;4.60;50.40
48043;DHT22;33988;47.992;8.820;2024-01-10T07:35:15;4.60;50.40
48043;DHT22;33988;47.992;8.820;2024-01-10T07:37:45;4.70;50.50
48043;DHT22;33988;47.992;8.820;2024-01-10T07:40:12;4.70;50.50
48043;DHT22;33988;47.992;8.820;2024-01-10T07:42:40;4.60;50.40
48043;DHT22;33988;47.992;8.820;2024-01-10T07:45:07;4.70;50.40
48043;DHT22;33988;47.992;8.820;2024-01-10T07:47:35;4.70;50.40
48043;DHT22;33988;47.992;8.820;2024-01-10T07:50:08;4.70;50.50
48043;DHT22;33988;47.992;8.820;2024-01-10T07:52:36;4.70;50.40
48043;DHT22;33988;47.992;8.820;2024-01-10T07:55:03;4.70;50.50
48043;DHT22;33988;47.992;8.820;2024-01-10T07:57:36;4.70;50.50
48043;DHT22;33988;47.992;8.820;2024-01-10T08:00:05;4.80;50.50
48043;DHT22;33988;47.992;8.820;2024-01-10T08:02:39;4.80;50.50
48043;DHT22;33988;47.992;8.820;2024-01-10T08:05:06;4.80;50.50
48043;DHT22;33988;47.992;8.820;2024-01-10T08:07:39;4.80;50.50
48043;DHT22;33988;47.992;8.820;2024-01-10T08:10:07;4.80;50.50
48043;DHT22;33988;47.992;8.820;2024-01-10T08:12:37;4.80;50.40
48043;DHT22;33988;47.992;8.820;2024-01-10T08:15:10;4.80;50.40
48043;DHT22;33988;47.992;8.820;2024-01-10T08:17:37;4.80;50.40
48043;DHT22;33988;47.992;8.820;2024-01-10T08:20:05;4.80;50.30
48043;DHT22;33988;47.992;8.820;2024-01-10T08:22:33;4.80;50.40
48043;DHT22;33988;47.992;8.820;2024-01-10T08:25:00;4.80;50.40
48043;DHT22;33988;47.992;8.820;2024-01-10T08:27:27;4.80;50.40
48043;DHT22;33988;47.992;8.820;2024-01-10T08:29:56;4.70;50.40
48043;DHT22;33988;47.992;8.820;2024-01-10T08:32:31;4.80;50.50
48043;DHT22;33988;47.992;8.820;2024-01-10T08:34:58;4.70;50.50
48043;DHT22;33988;47.992;8.820;2024-01-10T08:37:25;4.80;50.60
48043;DHT22;33988;47.992;8.820;2024-01-10T08:39:52;4.80;50.60
48043;DHT22;33988;47.992;8.820;2024-01-10T08:42:19;4.80;50.60
48043;DHT22;33988;47.992;8.820;2024-01-10T08:44:47;4.80;50.60
48043;DHT22;33988;47.992;8.820;2024-01-10T08:47:14;4.80;50.60
48043;DHT22;33988;47.992;8.820;2024-01-10T08:49:41;4.90;50.70
48043;DHT22;33988;47.992;8.820;2024-01-10T08:52:08;4.90;50.70
48043;DHT22;33988;47.992;8.820;2024-01-10T08:54:35;4.90;50.70
48043;DHT22;33988;47.992;8.820;2024-01-10T08:57:02;4.90;50.70
48043;DHT22;33988;47.992;8.820;2024-01-10T08:59:29;5.00;50.80
48043;DHT22;33988;47.992;8.820;2024-01-10T09:01:58;5.00;50.80
48043;DHT22;33988;47.992;8.820;2024-01-10T09:04:26;5.00;50.80
48043;DHT22;33988;47.992;8.820;2024-01-10T09:06:52;5.00;50.80
48043;DHT22;33988;47.992;8.820;2024-01-10T09:09:19;5.10;50.80
48043;DHT22;33988;47.992;8.820;2024-01-10T09:11:47;5.10;50.80
48043;DHT22;33988;47.992;8.820;2024-01-10T09:14:14;5.10;50.80
48043;DHT22;33988;47.992;8.820;2024-01-10T09:16:44;5.10;50.90
48043;DHT22;33988;47.992;8.820;2024-01-10T09:19:11;5.20;51.10
48043;DHT22;33988;47.992;8.820;2024-01-10T09:21:39;5.20;50.90
48043;DHT22;33988;47.992;8.820;2024-01-10T09:24:06;5.20;50.90
48043;DHT22;33988;47.992;8.820;2024-01-10T09:26:52;5.20;51.00
48043;DHT22;33988;47.992;8.820;2024-01-10T09:29:23;5.30;51.10
48043;DHT22;33988;47.992;8.820;2024-01-10T09:31:51;5.30;51.10
48043;DHT22;33988;47.992;8.820;2024-01-10T09:34:21;5.30;51.10
48043;DHT22;33988;47.992;8.820;2024-01-10T09:36:50;5.30;51.10
48043;DHT22;33988;47.992;8.820;2024-01-10T09:39:19;5.30;51.10
48043;DHT22;33988;47.992;8.820;2024-01-10T09:41:47;5.30;51.20
48043;DHT22;33988;47.992;8.820;2024-01-10T09:44:17;5.40;51.30
48043;DHT22;33988;47.992;8.820;2024-01-10T09:46:54;5.40;51.30
48043;DHT22;33988;47.992;8.820;2024-01-10T09:49:21;5.40;51.30
48043;DHT22;33988;47.992;8.820;2024-01-10T09:51:53;5.40;51.30
48043;DHT22;33988;47.992;8.820;2024-01-10T09:54:26;5.40;51.40
48043;DHT22;33988;47.992;8.820;2024-01-10T09:56:53;5.50;51.50
48043;DHT22;33988;47.992;8.820;2024-01-10T09:59:20;5.50;51.50
48043;DHT22;33988;47.992;8.820;2024-01-10T10:01:50;5.50;51.50
48043;DHT22;33988;47.992;8.820;2024-01-10T10:04:20;5.50;51.50
48043;DHT22;33988;47.992;8.820;2024-01-10T10:06:47;5.60;51.60
48043;DHT22;33988;47.992;8.820;2024-01-10T10:09:14;5.60;51.60
48043;DHT22;33988;47.992;8.820;2024-01-10T10:11:42;5.60;51.60
48043;DHT22;33988;47.992;8.820;2024-01-10T10:14:17;5.70;51.60
48043;DHT22;33988;47.992;8.820;2024-01-10T10:16:45;5.70;51.60
48043;DHT22;33988;47.992;8.820;2024-01-10T10:19:12;5.70;51.60
48043;DHT22;33988;47.992;8.820;2024-01-10T10:21:50;5.70;51.60
48043;DHT22;33988;47.992;8.820;2024-01-10T10:24:22;5.80;51.70
48043;DHT22;33988;47.992;8.820;2024-01-10T10:26:52;5.80;51.60
48043;DHT22;33988;47.992;8.820;2024-01-10T10:29:21;5.90;51.60
48043;DHT22;33988;47.992;8.820;2024-01-10T10:31:48;5.90;51.60
48043;DHT22;33988;47.992;8.820;2024-01-10T10:34:20;5.90;51.60
48043;DHT22;33988;47.992;8.820;2024-01-10T10:36:51;5.90;51.60
48043;DHT22;33988;47.992;8.820;2024-01-10T10:39:17;6.00;51.60
48043;DHT22;33988;47.992;8.820;2024-01-10T10:41:47;6.00;51.50
48043;DHT22;33988;47.992;8.820;2024-01-10T10:44:16;6.10;51.60
48043;DHT22;33988;47.992;8.820;2024-01-10T10:46:49;6.00;51.60
48043;DHT22;33988;47.992;8.820;2024-01-10T10:49:36;6.10;51.70
48043;DHT22;33988;47.992;8.820;2024-01-10T10:52:13;6.10;51.70
48043;DHT22;33988;47.992;8.820;2024-01-10T10:54:45;6.10;51.70
48043;DHT22;33988;47.992;8.820;2024-01-10T10:57:13;6.10;51.70
48043;DHT22;33988;47.992;8.820;2024-01-10T10:59:40;6.20;51.80
48043;DHT22;33988;47.992;8.820;2024-01-10T11:02:09;6.20;51.80
48043;DHT22;33988;47.992;8.820;2024-01-10T11:04:38;6.20;51.80
48043;DHT22;33988;47.992;8.820;2024-01-10T11:07:07;6.20;51.80
48043;DHT22;33988;47.992;8.820;2024-01-10T11:09:34;6.20;51.80
48043;DHT22;33988;47.992;8.820;2024-01-10T11:22:46;6.40;51.90
48043;DHT22;33988;47.992;8.820;2024-01-10T11:25:24;6.40;52.00
48043;DHT22;33988;47.992;8.820;2024-01-10T11:27:56;6.50;52.10
48043;DHT22;33988;47.992;8.820;2024-01-10T11:30:48;6.50;52.10
48043;DHT22;33988;47.992;8.820;2024-01-10T11:33:23;6.50;52.10
48043;DHT22;33988;47.992;8.820;2024-01-10T11:38:44;6.60;52.10
48043;DHT22;33988;47.992;8.820;2024-01-10T11:41:20;6.60;52.10
48043;DHT22;33988;47.992;8.820;2024-01-10T11:44:30;6.70;52.20
48043;DHT22;33988;47.992;8.820;2024-01-10T11:46:41;6.70;52.20
48043;DHT22;33988;47.992;8.820;2024-01-10T11:49:09;6.70;52.20
48043;DHT22;33988;47.992;8.820;2024-01-10T11:51:44;6.80;52.30
48043;DHT22;33988;47.992;8.820;2024-01-10T11:57:06;6.80;52.20
48043;DHT22;33988;47.992;8.820;2024-01-10T11:59:34;6.90;52.30
48043;DHT22;33988;47.992;8.820;2024-01-10T12:02:01;6.90;52.30
48043;DHT22;33988;47.992;8.820;2024-01-10T12:04:31;6.90;52.30
48043;DHT22;33988;47.992;8.820;2024-01-10T12:07:13;6.90;52.30
48043;DHT22;33988;47.992;8.820;2024-01-10T12:09:46;7.00;52.30
48043;DHT22;33988;47.992;8.820;2024-01-10T12:12:13;7.00;52.30
48043;DHT22;33988;47.992;8.820;2024-01-10T12:14:41;7.00;52.30
48043;DHT22;33988;47.992;8.820;2024-01-10T12:17:09;7.00;52.20
48043;DHT22;33988;47.992;8.820;2024-01-10T12:19:36;7.00;52.20
48043;DHT22;33988;47.992;8.820;2024-01-10T12:22:07;7.00;52.20
48043;DHT22;33988;47.992;8.820;2024-01-10T12:24:42;7.10;52.30
48043;DHT22;33988;47.992;8.820;2024-01-10T12:27:12;7.10;52.30
48043;DHT22;33988;47.992;8.820;2024-01-10T12:29:39;7.10;52.30
48043;DHT22;33988;47.992;8.820;2024-01-10T12:32:07;7.20;52.30
48043;DHT22;33988;47.992;8.820;2024-01-10T12:34:39;7.20;52.30
48043;DHT22;33988;47.992;8.820;2024-01-10T12:37:06;7.20;52.30
48043;DHT22;33988;47.992;8.820;2024-01-10T12:39:36;7.20;52.30
48043;DHT22;33988;47.992;8.820;2024-01-10T12:42:03;7.20;52.30
48043;DHT22;33988;47.992;8.820;2024-01-10T12:44:30;7.20;52.30
48043;DHT22;33988;47.992;8.820;2024-01-10T12:46:58;7.20;52.30
48043;DHT22;33988;47.992;8.820;2024-01-10T12:49:26;7.30;52.40
48043;DHT22;33988;47.992;8.820;2024-01-10T12:51:56;7.30;52.40
48043;DHT22;33988;47.992;8.820;2024-01-10T12:54:25;7.40;52.40
48043;DHT22;33988;47.992;8.820;2024-01-10T12:56:52;7.30;52.40
48043;DHT22;33988;47.992;8.820;2024-01-10T12:59:19;7.40;52.50
48043;DHT22;33988;47.992;8.820;2024-01-10T13:01:48;7.40;52.50
48043;DHT22;33988;47.992;8.820;2024-01-10T13:04:15;7.40;52.50
48043;DHT22;33988;47.992;8.820;2024-01-10T13:06:42;7.50;52.50
48043;DHT22;33988;47.992;8.820;2024-01-10T13:09:09;7.50;52.50
48043;DHT22;33988;47.992;8.820;2024-01-10T13:11:39;7.50;52.50
48043;DHT22;33988;47.992;8.820;2024-01-10T13:14:06;7.50;52.50
48043;DHT22;33988;47.992;8.820;2024-01-10T13:16:33;7.50;52.50
48043;DHT22;33988;47.992;8.820;2024-01-10T13:19:14;7.50;52.40
48043;DHT22;33988;47.992;8.820;2024-01-10T13:21:41;7.50;52.40
48043;DHT22;33988;47.992;8.820;2024-01-10T13:24:11;7.60;52.50
48043;DHT22;33988;47.992;8.820;2024-01-10T13:26:40;7.60;52.50
48043;DHT22;33988;47.992;8.820;2024-01-10T13:29:09;7.60;52.50
48043;DHT22;33988;47.992;8.820;2024-01-10T13:31:36;7.60;52.50
48043;DHT22;33988;47.992;8.820;2024-01-10T13:34:05;7.60;52.50
48043;DHT22;33988;47.992;8.820;2024-01-10T13:36:36;7.70;52.50
48043;DHT22;33988;47.992;8.820;2024-01-10T13:39:03;7.70;52.50
48043;DHT22;33988;47.992;8.820;2024-01-10T13:41:30;7.70;52.50
48043;DHT22;33988;47.992;8.820;2024-01-10T13:43:57;7.70;52.40
48043;DHT22;33988;47.992;8.820;2024-01-10T13:46:24;7.70;52.40
48043;DHT22;33988;47.992;8.820;2024-01-10T13:48:50;7.70;52.40
48043;DHT22;33988;47.992;8.820;2024-01-10T13:51:17;7.80;52.50
48043;DHT22;33988;47.992;8.820;2024-01-10T13:53:44;7.80;52.50
48043;DHT22;33988;47.992;8.820;2024-01-10T13:56:13;7.80;52.50
48043;DHT22;33988;47.992;8.820;2024-01-10T13:58:41;7.80;52.50
48043;DHT22;33988;47.992;8.820;2024-01-10T14:01:07;7.80;52.60
48043;DHT22;33988;47.992;8.820;2024-01-10T14:03:37;7.80;52.50
48043;DHT22;33988;47.992;8.820;2024-01-10T14:06:04;7.80;52.50
48043;DHT22;33988;47.992;8.820;2024-01-10T14:08:32;7.90;52.50
48043;DHT22;33988;47.992;8.820;2024-01-10T14:11:03;7.90;52.50
48043;DHT22;33988;47.992;8.820;2024-01-10T14:13:30;7.90;52.50
48043;DHT22;33988;47.992;8.820;2024-01-10T14:15:59;7.90;52.50
48043;DHT22;33988;47.992;8.820;2024-01-10T14:18:27;8.00;52.50
48043;DHT22;33988;47.992;8.820;2024-01-10T14:20:54;7.90;52.40
48043;DHT22;33988;47.992;8.820;2024-01-10T14:23:23;7.90;52.40
48043;DHT22;33988;47.992;8.820;2024-01-10T14:25:50;7.90;52.40
48043;DHT22;33988;47.992;8.820;2024-01-10T14:28:20;7.90;52.40
48043;DHT22;33988;47.992;8.820;2024-01-10T14:30:51;8.00;52.40
48043;DHT22;33988;47.992;8.820;2024-01-10T14:33:39;7.90;52.40
48043;DHT22;33988;47.992;8.820;2024-01-10T14:36:08;7.90;52.40
48043;DHT22;33988;47.992;8.820;2024-01-10T14:38:35;7.90;52.40
48043;DHT22;33988;47.992;8.820;2024-01-10T14:41:02;7.90;52.40
48043;DHT22;33988;47.992;8.820;2024-01-10T14:43:29;7.90;52.40
48043;DHT22;33988;47.992;8.820;2024-01-10T14:45:56;7.90;52.50
48043;DHT22;33988;47.992;8.820;2024-01-10T14:48:25;7.90;52.50
48043;DHT22;33988;47.992;8.820;2024-01-10T14:50:52;7.90;52.50
48043;DHT22;33988;47.992;8.820;2024-01-10T14:53:21;7.80;53.10
48043;DHT22;33988;47.992;8.820;2024-01-10T14:55:48;7.80;52.50
48043;DHT22;33988;47.992;8.820;2024-01-10T14:58:17;7.80;52.50
48043;DHT22;33988;47.992;8.820;2024-01-10T15:00:45;7.80;52.50
48043;DHT22;33988;47.992;8.820;2024-01-10T15:03:12;7.80;52.50
48043;DHT22;33988;47.992;8.820;2024-01-10T15:05:52;7.80;52.50
48043;DHT22;33988;47.992;8.820;2024-01-10T15:08:21;7.80;52.50
48043;DHT22;33988;47.992;8.820;2024-01-10T15:10:49;7.70;52.50
48043;DHT22;33988;47.992;8.820;2024-01-10T15:13:16;7.70;52.50
48043;DHT22;33988;47.992;8.820;2024-01-10T15:15:44;7.70;52.60
48043;DHT22;33988;47.992;8.820;2024-01-10T15:18:14;7.70;52.60
48043;DHT22;33988;47.992;8.820;2024-01-10T15:20:44;7.70;52.60
48043;DHT22;33988;47.992;8.820;2024-01-10T15:23:11;7.70;52.70
48043;DHT22;33988;47.992;8.820;2024-01-10T15:25:38;7.60;52.60
48043;DHT22;33988;47.992;8.820;2024-01-10T15:28:06;7.60;52.70
48043;DHT22;33988;47.992;8.820;2024-01-10T15:30:33;7.60;52.70
48043;DHT22;33988;47.992;8.820;2024-01-10T15:33:13;7.60;52.70
48043;DHT22;33988;47.992;8.820;2024-01-10T15:35:42;7.60;52.70
48043;DHT22;33988;47.992;8.820;2024-01-10T15:38:12;7.60;52.70
48043;DHT22;33988;47.992;8.820;2024-01-10T15:40:39;7.60;52.70
48043;DHT22;33988;47.992;8.820;2024-01-10T15:43:06;7.60;52.70
48043;DHT22;33988;47.992;8.820;2024-01-10T15:45:35;7.60;52.70
48043;DHT22;33988;47.992;8.820;2024-01-10T15:48:02;7.60;52.70
48043;DHT22;33988;47.992;8.820;2024-01-10T15:50:30;7.60;52.70
48043;DHT22;33988;47.992;8.820;2024-01-10T15:52:57;7.60;52.70
48043;DHT22;33988;47.992;8.820;2024-01-10T15:55:23;7.60;52.70
48043;DHT22;33988;47.992;8.820;2024-01-10T15:57:51;7.60;52.80
48043;DHT22;33988;47.992;8.820;2024-01-10T16:00:20;7.60;52.70
48043;DHT22;33988;47.992;8.820;2024-01-10T16:02:49;7.60;52.80
48043;DHT22;33988;47.992;8.820;2024-01-10T16:05:18;7.60;52.80
48043;DHT22;33988;47.992;8.820;2024-01-10T16:07:47;7.60;52.80
48043;DHT22;33988;47.992;8.820;2024-01-10T16:10:17;7.60;52.80